Terminal Aerodrome Forecast
Issued by NWS Cleveland, OH

Home | Current Version | Previous Version | Graphics & Text | Print | Product List | Glossary On
Versions: 1 2 3 4 5 6 7 8 9 10 11 12 13 14 15 16 17 18 19 20 21 22 23 24 25 26
000
FTUS41 KCLE 230543
TAFCLE
TAF
KCLE 230543Z 2306/2412 34006KT P6SM BKN015
     FM230800 34004KT P6SM SKC
      TEMPO 2309/2313 3SM BR
     FM231500 36006KT P6SM SKC
     FM240000 VRB03KT P6SM SKC=

USA.gov is the U.S. government's official web portal to all federal, state and local government web resources and services.